Aérodrome :
LOGIN :

S'inscrire | Disclaimer

   EN    FR    IT 

 










Légende :    VFR   VFR Marginal   IFR   IFR Intensif   IFR Très Intensif
Visi : 
Plafond : 
>= 8 km
>= 3000ft
5 à 8 km
1000 à 3000 ft
1500m à 5 km
500 à 1000 ft
800 à 1500m
200 à 500 ft
< 800m
< 200 ft
Symboles :   Orages  Brouillard  Fortes neiges  Fortes précipitations  Vent > 20 kt
SIGMETs :   Divers  Orages  Givrage  Turbulence  Onde Orograph.  Cendres Volcan.







- Altitude de l'aérodrome : 277 ft
- Code IATA : JER
- Voir les cartes d'approche


EGJJ - Jersey

DERNIER METAR :
  • 220750Z 21006KT 9999 -RA FEW024 14/10 Q1021

METARs EXPIRÉS :
  • 220720Z 22006KT 9999 FEW026 14/09 Q1021
  • 220650Z 22005KT 9999 -RA FEW026 13/10 Q1021
  • 220620Z 22006KT 9999 -RA FEW026 13/10 Q1021
  • 220550Z 23007KT 9999 -RA FEW026 13/10 Q1021

TAF TAF EGJJ
Valide du 22 à 09h jusqu'au 22 à 18h UTC


220805Z 2209/2218 18010KT 9999 -RA SCT015 BKN030
BECMG 2210/2212 17020KT 6000 RA BKN010
PROB30
TEMPO 2211/2218 2000 +RA BR BKN005
BECMG 2216/2218 24022KT 3000 -RADZ BKN005
PROB30
TEMPO 2216/2218 0500 FG BKN000
ATIS : +44 1534 498 073
Pas de NOTAMs connus pour ce terrain.
1 SIGMET publié pour la FIR Brest (LFRR) :
 
Givrage fort
LFRR SIGMET 1 VALID 220630/221000 LFPW
LFRR BREST FIR/UIR SEV ICE FCST WI N4930 W00445 - N5000 W00200 - N5000 W00015 - N4845 W00015 - N4900 W00400 - N4930 W00445 FL080/200 MOV E 35KT NC=



MET'MAP, la Météo Aéronautique d'un coup d'oeil ! - Copyright ORBIFLY Décembre 2007 - Disclaimer

ORBIFLY MET'MAP TEAM :

Programmation & Développement : Alexandra Zaïnal
Conception & Développement : Baudouin d'Aumeries
Co-Programmation & Développement : Marc-Olivier Méhu
Soutien technique & logistique : Manuel Goepfert

Contact : metmap@orbifly.com




SOURCES & CREDITS :

   NOAA